This is the latest recevied weather packets stored in our database for station/object N4OGP-WX. If no packets are shown the sender has not sent any weather packets the latest 10 day(s).
| Time | Temp. | Humidity | Pressure | Rain* | Wind** | Luminosity | Snow |
|---|---|---|---|---|---|---|---|
| 1777679121 | 23.89° C | 42% | 1020.4 hPa | 0 mm | - | - | - |
| 1777679061 | 16.67° C | 92% | 1008 hPa | 0 mm | - | - | - |
| 1777679001 | 16.67° C | 92% | 1007.9 hPa | 0 mm | - | - | - |
| 1777678911 | 23.89° C | 42% | 1020.4 hPa | 0 mm | - | - | - |
| 1777678851 | 23.89° C | 42% | 1020.4 hPa | 0 mm | - | - | - |
| 1777678791 | 16.67° C | 91% | 1007.8 hPa | 0 mm | - | - | - |
| 1777678731 | 23.89° C | 42% | 1020.4 hPa | 0 mm | - | - | - |
| 1777678671 | 17.22° C | 91% | 1008 hPa | 0 mm | - | - | - |
| 1777678611 | 23.89° C | 42% | 1020.4 hPa | 0 mm | - | - | - |
| 1777678551 | 17.22° C | 91% | 1007.9 hPa | 0 mm | - | - | - |
| 1777678461 | 17.22° C | 91% | 1007.8 hPa | 0 mm | - | - | - |
| 1777678401 | 23.89° C | 42% | 1020.4 hPa | 0 mm | - | - | - |
| 1777678311 | 17.22° C | 90% | 1007.5 hPa | 0 mm | - | - | - |
| 1777678251 | 23.89° C | 42% | 1020.4 hPa | 0 mm | - | - | - |
| 1777678191 | 17.22° C | 90% | 1007.6 hPa | 0 mm | - | - | - |
| 1777678131 | 17.22° C | 90% | 1007.6 hPa | 0 mm | - | - | - |
| 1777678071 | 17.22° C | 90% | 1007.6 hPa | 0 mm | - | - | - |
| 1777677981 | 23.89° C | 42% | 1020.4 hPa | 0 mm | - | - | - |
| 1777677921 | 17.78° C | 90% | 1007.8 hPa | 0 mm | - | - | - |
| 1777677861 | 23.89° C | 42% | 1020.4 hPa | 0 mm | - | - | - |
| 1777677801 | 23.89° C | 42% | 1020.4 hPa | 0 mm | - | - | - |
| 1777677741 | 17.78° C | 90% | 1007.7 hPa | 0 mm | - | - | - |
| 1777677681 | 23.89° C | 42% | 1020.4 hPa | 0 mm | - | - | - |
| 1777677621 | 23.89° C | 42% | 1020.4 hPa | 0 mm | - | - | - |
| 1777677531 | 23.89° C | 42% | 1020.4 hPa | 0 mm | - | - | - |
* Rain latest hour (hover to see other rain measurements)
** Current wind speed in m/s (hover to see current wind gust speed)